Time;durP1;ratioP1;P1;durP2;ratioP2;P2;SDS_P1;SDS_P2;PMS_P1;PMS_P2;Temp;Humidity;BMP_temperature;BMP_pressure;BME280_temperature;BME280_humidity;BME280_pressure;Samples;Min_cycle;Max_cycle;Signal;HPM_P1;HPM_P2
2021/06/13 00:04:09;;;;;;;241.55;227.32;;;17.10;99.90;;;;;;5091863;28;20235;-79
2021/06/13 00:06:35;;;;;;;247.05;233.10;;;17.00;99.90;;;;;;5099909;28;20203;-78
2021/06/13 00:09:02;;;;;;;242.02;228.48;;;17.00;99.90;;;;;;5091562;28;20204;-78
2021/06/13 00:19:41;;;;;;;243.40;229.10;;;16.70;99.90;;;;;;5090528;28;20270;-78
2021/06/13 00:27:45;;;;;;;242.90;229.32;;;16.50;99.90;;;;;;5109146;28;20210;-80
2021/06/13 00:30:15;;;;;;;221.85;209.70;;;16.60;99.90;;;;;;5099049;28;20249;-80
2021/06/13 00:40:47;;;;;;;239.27;225.38;;;16.40;99.90;;;;;;5093390;28;20241;-80
2021/06/13 00:43:15;;;;;;;267.40;251.98;;;16.30;99.90;;;;;;5100065;28;20218;-79
2021/06/13 00:45:42;;;;;;;234.40;220.57;;;16.30;99.90;;;;;;5099206;28;20228;-79
2021/06/13 00:56:16;;;;;;;231.45;218.25;;;15.90;99.90;;;;;;5104037;28;20209;-79
2021/06/13 00:58:44;;;;;;;236.35;221.73;;;15.90;99.90;;;;;;5097403;28;20203;-80
2021/06/13 01:01:11;;;;;;;257.83;243.10;;;15.90;99.90;;;;;;5097227;28;20200;-79
2021/06/13 01:06:31;;;;;;;230.25;217.10;;;15.90;99.90;;;;;;5109012;28;20348;-79
2021/06/13 01:11:49;;;;;;;253.02;237.93;;;15.70;99.90;;;;;;5098559;28;20208;-78
2021/06/13 01:14:23;;;;;;;240.68;226.90;;;15.70;99.90;;;;;;5101296;28;20256;-78
2021/06/13 01:19:49;;;;;;;243.98;229.73;;;15.70;99.90;;;;;;5103639;28;20344;-79
2021/06/13 01:25:28;;;;;;;235.25;221.75;;;15.60;99.90;;;;;;5089937;28;20243;-78
2021/06/13 01:28:16;;;;;;;258.30;243.18;;;15.50;99.90;;;;;;5096428;28;20221;-79
2021/06/13 01:30:48;;;;;;;267.65;251.88;;;15.30;99.90;;;;;;5096205;28;20270;-78
2021/06/13 01:36:00;;;;;;;249.05;234.50;;;15.30;99.90;;;;;;5094429;28;20200;-78
2021/06/13 01:38:28;;;;;;;258.33;243.30;;;15.20;99.90;;;;;;5101702;28;20635;-78
2021/06/13 01:40:56;;;;;;;249.38;234.55;;;15.20;99.90;;;;;;5094855;28;20200;-78
2021/06/13 01:46:21;;;;;;;256.60;240.68;;;15.20;99.90;;;;;;5092567;28;20253;-78
2021/06/13 01:51:30;;;;;;;246.05;230.45;;;15.00;99.90;;;;;;5097434;28;20283;-78
2021/06/13 01:56:46;;;;;;;280.58;263.00;;;14.90;99.90;;;;;;5088832;28;20237;-78
2021/06/13 01:59:14;;;;;;;286.40;268.73;;;14.90;99.90;;;;;;5101720;28;20205;-78
2021/06/13 02:01:44;;;;;;;266.17;250.57;;;14.90;99.90;;;;;;5101832;28;20597;-78
2021/06/13 02:09:36;;;;;;;268.73;252.13;;;14.80;99.90;;;;;;5097537;28;20230;-79
2021/06/13 02:14:56;;;;;;;276.00;259.83;;;14.70;99.90;;;;;;5096940;28;20215;-78
2021/06/13 02:17:43;;;;;;;282.25;264.98;;;14.70;99.90;;;;;;5098723;28;20203;-79
2021/06/13 02:20:12;;;;;;;290.83;272.98;;;14.70;99.90;;;;;;5099093;28;20233;-78
2021/06/13 02:25:29;;;;;;;257.15;241.60;;;14.70;99.90;;;;;;5089740;28;20238;-78
2021/06/13 02:33:26;;;;;;;248.75;233.45;;;14.60;99.90;;;;;;5097129;28;20203;-79
2021/06/13 02:46:45;;;;;;;300.83;282.08;;;14.40;99.90;;;;;;5092248;28;20211;-78
2021/06/13 02:49:28;;;;;;;291.23;272.60;;;14.40;99.90;;;;;;5097254;28;20201;-78
2021/06/13 02:52:07;;;;;;;293.73;275.33;;;14.30;99.90;;;;;;5100316;28;20207;-78
2021/06/13 02:54:40;;;;;;;286.73;268.65;;;14.30;99.90;;;;;;5098314;28;20199;-79
2021/06/13 02:59:57;;;;;;;296.90;277.70;;;14.20;99.90;;;;;;5102203;28;20215;-79
2021/06/13 03:05:18;;;;;;;294.13;275.48;;;14.30;99.90;;;;;;5103387;28;20697;-79
2021/06/13 03:10:35;;;;;;;293.17;274.77;;;14.20;99.90;;;;;;5098810;28;20242;-79
2021/06/13 03:15:55;;;;;;;279.17;262.15;;;14.10;99.90;;;;;;5100788;28;20263;-78
2021/06/13 03:21:20;;;;;;;274.73;257.67;;;14.20;99.90;;;;;;5106863;28;20186;-79
2021/06/13 03:23:48;;;;;;;263.15;246.45;;;14.20;99.90;;;;;;5099775;28;20204;-79
2021/06/13 03:37:04;;;;;;;278.88;261.33;;;14.10;99.90;;;;;;5106701;28;20240;-78
2021/06/13 03:45:05;;;;;;;249.02;233.98;;;13.70;99.90;;;;;;5094129;28;20291;-80
2021/06/13 03:50:18;;;;;;;260.20;243.45;;;13.60;99.90;;;;;;5099709;28;20211;-78
2021/06/13 04:00:53;;;;;;;283.83;265.65;;;13.80;99.90;;;;;;5098345;28;20219;-79
2021/06/13 04:03:21;;;;;;;274.40;256.48;;;13.80;99.90;;;;;;5096320;28;20228;-79
2021/06/13 04:05:49;;;;;;;251.10;235.57;;;13.80;99.90;;;;;;5102861;28;20260;-79
2021/06/13 04:08:32;;;;;;;256.65;239.82;;;13.70;99.90;;;;;;5106401;28;20204;-79
2021/06/13 04:13:41;;;;;;;265.85;248.55;;;13.70;99.90;;;;;;5103998;28;20781;-80
2021/06/13 04:16:09;;;;;;;273.25;256.20;;;13.60;99.90;;;;;;5098375;28;20226;-79
2021/06/13 04:18:38;;;;;;;261.88;245.55;;;13.60;99.90;;;;;;5093522;28;20229;-78
2021/06/13 04:23:49;;;;;;;274.20;257.17;;;13.50;99.90;;;;;;5101724;28;20200;-78
2021/06/13 04:29:06;;;;;;;262.08;244.60;;;13.50;99.90;;;;;;5097950;28;20258;-78
2021/06/13 04:31:41;;;;;;;272.10;254.32;;;13.40;99.90;;;;;;5102859;28;20271;-77
2021/06/13 04:39:46;;;;;;;282.80;265.60;;;13.50;99.90;;;;;;5098762;28;20477;-78
2021/06/13 04:42:20;;;;;;;269.73;253.52;;;13.70;99.90;;;;;;5099286;28;20659;-78
2021/06/13 04:47:36;;;;;;;242.90;228.20;;;14.10;99.90;;;;;;5102973;28;20202;-79
2021/06/13 04:55:38;;;;;;;238.52;224.02;;;14.60;99.90;;;;;;5090085;28;20230;-78
2021/06/13 04:58:23;;;;;;;253.48;238.27;;;14.80;99.90;;;;;;5090828;28;20199;-78
2021/06/13 05:00:50;;;;;;;259.08;243.00;;;15.00;99.90;;;;;;5095161;28;20220;-79
2021/06/13 05:08:49;;;;;;;247.00;232.15;;;15.10;99.90;;;;;;5101711;28;20722;-79
2021/06/13 05:11:32;;;;;;;242.68;227.57;;;15.10;99.90;;;;;;5102481;28;20282;-79
2021/06/13 05:16:43;;;;;;;245.20;230.48;;;15.00;99.90;;;;;;5092392;28;20224;-81
2021/06/13 05:27:29;;;;;;;239.90;224.85;;;15.00;99.90;;;;;;5102525;28;20194;-81
2021/06/13 05:45:03;;;;;;;248.57;231.80;;;15.30;99.90;;;;;;4921021;29;20320;-78
2021/06/13 05:50:16;;;;;;;240.77;226.43;;;15.40;99.90;;;;;;4920557;29;20210;-78
2021/06/13 06:03:37;;;;;;;232.10;218.75;;;15.80;99.90;;;;;;4978807;28;20911;-78
2021/06/13 06:09:24;;;;;;;75.53;70.93;;;16.60;99.90;;;;;;5026094;28;20457;-79
2021/06/13 06:12:00;;;;;;;172.50;163.60;;;16.90;99.90;;;;;;5040843;28;20467;-78
2021/06/13 06:22:33;;;;;;;180.60;170.93;;;18.20;99.90;;;;;;5106007;28;20271;-81
2021/06/13 06:31:05;;;;;;;133.88;126.82;;;19.10;99.90;;;;;;5094953;28;20218;-81
2021/06/13 06:39:21;;;;;;;139.32;131.98;;;19.40;99.90;;;;;;5100243;28;20223;-81
2021/06/13 06:47:28;;;;;;;138.05;131.07;;;20.00;99.90;;;;;;5097404;28;20237;-80
2021/06/13 06:49:56;;;;;;;133.65;127.13;;;20.30;99.90;;;;;;5093303;28;20705;-80
2021/06/13 06:55:06;;;;;;;100.90;94.72;;;20.60;99.90;;;;;;5101543;28;20956;-80
2021/06/13 06:57:33;;;;;;;139.55;132.18;;;20.80;99.90;;;;;;5099952;28;20200;-80
2021/06/13 07:00:00;;;;;;;122.53;116.35;;;20.80;99.90;;;;;;5103499;28;20206;-78
2021/06/13 07:10:35;;;;;;;121.63;115.10;;;21.30;99.90;;;;;;5102154;28;20231;-78
2021/06/13 07:13:02;;;;;;;140.13;132.55;;;21.50;99.90;;;;;;5106485;28;20254;-78
2021/06/13 07:15:29;;;;;;;135.57;128.75;;;21.50;99.90;;;;;;5091485;28;20231;-78
2021/06/13 07:23:26;;;;;;;116.70;110.55;;;21.90;99.90;;;;;;5099850;28;20188;-78
2021/06/13 07:31:23;;;;;;;105.05;99.80;;;22.30;99.90;;;;;;5096589;28;20298;-78
2021/06/13 07:39:21;;;;;;;94.68;89.93;;;22.60;98.40;;;;;;5106492;28;20196;-78
2021/06/13 07:44:33;;;;;;;74.50;70.78;;;23.00;97.70;;;;;;5097746;28;20254;-78
2021/06/13 07:47:00;;;;;;;79.10;74.43;;;23.10;97.10;;;;;;5094940;28;20234;-78
2021/06/13 07:49:29;;;;;;;84.75;80.60;;;23.00;95.80;;;;;;5090447;28;20267;-77
2021/06/13 07:54:41;;;;;;;78.10;74.30;;;22.80;95.50;;;;;;5097803;28;20229;-78
2021/06/13 07:57:08;;;;;;;107.63;102.05;;;22.60;95.40;;;;;;5093984;28;20196;-77
2021/06/13 07:59:36;;;;;;;121.47;115.15;;;22.60;96.20;;;;;;5108395;28;20196;-78
2021/06/13 08:04:53;;;;;;;103.57;98.50;;;22.50;95.40;;;;;;5096133;28;20260;-77
2021/06/13 08:07:20;;;;;;;113.82;107.95;;;22.40;94.10;;;;;;5095758;28;20223;-77
2021/06/13 08:09:47;;;;;;;107.13;101.78;;;22.10;94.50;;;;;;5090160;28;20239;-77
2021/06/13 08:12:17;;;;;;;122.70;116.03;;;22.00;95.80;;;;;;5096745;28;20203;-78
2021/06/13 08:14:44;;;;;;;115.60;109.47;;;22.10;95.10;;;;;;5093820;28;20234;-78
2021/06/13 08:17:10;;;;;;;124.53;118.18;;;22.10;94.00;;;;;;5098295;28;20254;-78
2021/06/13 08:19:38;;;;;;;144.25;136.77;;;21.90;93.90;;;;;;5093522;28;20230;-78
2021/06/13 08:22:06;;;;;;;120.72;114.13;;;21.80;94.30;;;;;;5089858;28;20198;-78
2021/06/13 08:24:33;;;;;;;144.63;137.23;;;21.80;95.90;;;;;;5095955;28;20373;-77
2021/06/13 08:27:00;;;;;;;159.88;151.85;;;21.80;95.90;;;;;;5108018;28;20291;-78
2021/06/13 08:29:27;;;;;;;172.13;163.55;;;21.70;94.70;;;;;;5101043;28;20205;-78
2021/06/13 08:31:58;;;;;;;148.13;140.40;;;21.80;95.70;;;;;;5089863;28;20205;-77
2021/06/13 08:34:25;;;;;;;174.05;165.23;;;21.80;95.70;;;;;;5094909;28;20202;-77
2021/06/13 08:36:55;;;;;;;154.57;146.80;;;21.60;95.20;;;;;;5093550;28;20297;-77
2021/06/13 08:42:06;;;;;;;157.75;150.10;;;21.90;96.50;;;;;;5089826;28;20215;-79
2021/06/13 08:44:33;;;;;;;133.82;127.10;;;22.10;95.30;;;;;;5092829;28;20193;-78
2021/06/13 08:49:43;;;;;;;116.32;110.53;;;22.30;95.70;;;;;;5094797;28;20267;-78
2021/06/13 08:52:11;;;;;;;118.65;112.75;;;22.50;94.00;;;;;;5094622;28;20195;-78
2021/06/13 08:54:39;;;;;;;134.27;127.70;;;22.70;94.30;;;;;;5100291;28;20252;-78
2021/06/13 08:57:08;;;;;;;98.03;93.07;;;22.90;94.60;;;;;;5097560;28;20211;-78
2021/06/13 08:59:36;;;;;;;126.57;119.57;;;23.30;93.40;;;;;;5098964;28;20223;-77
2021/06/13 09:02:05;;;;;;;79.82;75.18;;;23.50;94.00;;;;;;5099528;28;20581;-78
2021/06/13 09:10:13;;;;;;;58.08;55.10;;;23.50;93.40;;;;;;5100224;28;20243;-77
2021/06/13 09:12:40;;;;;;;70.93;67.18;;;23.60;92.50;;;;;;5098407;28;20216;-77
2021/06/13 09:15:08;;;;;;;70.30;66.85;;;24.00;92.90;;;;;;5095447;28;20199;-77
2021/06/13 09:17:42;;;;;;;68.38;64.72;;;24.10;91.90;;;;;;5090800;28;20201;-80
2021/06/13 09:20:17;;;;;;;68.40;64.63;;;24.10;91.60;;;;;;5104466;28;20201;-78
2021/06/13 09:23:10;;;;;;;61.13;57.95;;;24.30;92.70;;;;;;5095697;28;20199;-77
2021/06/13 09:25:41;;;;;;;49.30;46.45;;;24.80;92.40;;;;;;5099768;28;20245;-78
2021/06/13 09:28:11;;;;;;;60.13;56.90;;;25.10;91.30;;;;;;5107320;28;20209;-78
2021/06/13 09:30:40;;;;;;;63.97;60.70;;;25.30;91.30;;;;;;5100523;28;20222;-78
2021/06/13 09:33:14;;;;;;;59.55;56.38;;;25.30;90.60;;;;;;5089162;28;20205;-78
2021/06/13 09:38:26;;;;;;;68.82;65.30;;;25.20;89.70;;;;;;5090671;28;20206;-78
2021/06/13 09:40:59;;;;;;;74.18;70.18;;;25.10;87.60;;;;;;5098748;28;20201;-78
2021/06/13 09:43:29;;;;;;;61.83;58.70;;;25.00;89.50;;;;;;5097680;28;20208;-78
2021/06/13 09:46:05;;;;;;;58.70;55.53;;;25.20;88.60;;;;;;5097970;28;20288;-78
2021/06/13 09:48:45;;;;;;;65.47;62.08;;;25.20;86.10;;;;;;5096996;28;20646;-79
2021/06/13 09:53:56;;;;;;;68.40;64.80;;;25.40;87.20;;;;;;5094112;28;20210;-79
2021/06/13 09:59:14;;;;;;;80.32;75.97;;;26.00;86.90;;;;;;5091626;28;20214;-78
2021/06/13 10:08:37;;;;;;;54.92;51.67;;;26.70;83.40;;;;;;5151401;27;20219;-78
2021/06/13 10:24:09;;;;;;;49.72;46.83;;;27.00;82.70;;;;;;5112317;28;20288;-77
2021/06/13 10:27:23;;;;;;;47.58;44.83;;;27.40;81.30;;;;;;5108513;28;20210;-77
2021/06/13 10:29:52;;;;;;;50.60;47.45;;;27.60;81.00;;;;;;5102043;28;20964;-77
2021/06/13 10:38:31;;;;;;;62.08;58.22;;;27.60;80.00;;;;;;5046518;28;20230;-77
2021/06/13 10:44:23;;;;;;;64.43;60.70;;;27.10;77.60;;;;;;5041148;28;20234;-77
2021/06/13 10:46:54;;;;;;;53.42;50.20;;;26.50;76.90;;;;;;5041922;28;20230;-78
2021/06/13 10:49:33;;;;;;;68.57;64.32;;;26.20;78.40;;;;;;5046828;28;20200;-78
2021/06/13 10:59:02;;;;;;;50.40;47.20;;;27.10;79.80;;;;;;5042192;28;20287;-78
2021/06/13 11:02:09;;;;;;;44.30;40.67;;;27.10;79.40;;;;;;5041736;28;20337;-78
2021/06/13 11:05:26;;;;;;;54.15;50.60;;;26.80;78.30;;;;;;5045347;28;20237;-78
2021/06/13 11:07:58;;;;;;;72.40;68.05;;;26.70;80.50;;;;;;5101649;28;20215;-77
2021/06/13 11:10:30;;;;;;;54.15;50.58;;;26.50;81.60;;;;;;5105444;28;20226;-77
2021/06/13 11:23:40;;;;;;;98.22;92.32;;;25.40;81.60;;;;;;5092715;28;20229;-77
2021/06/13 11:30:08;;;;;;;93.03;87.75;;;25.10;84.90;;;;;;5086585;28;20383;-77
2021/06/13 11:35:56;;;;;;;81.32;76.45;;;24.60;85.40;;;;;;5085801;28;20200;-77
2021/06/13 11:42:29;;;;;;;96.22;90.78;;;24.10;87.30;;;;;;5090372;28;20196;-77
2021/06/13 11:52:13;;;;;;;165.70;156.25;;;24.20;87.50;;;;;;5050602;28;20265;-77
2021/06/13 11:55:34;;;;;;;121.60;114.57;;;24.20;85.90;;;;;;5060115;28;20963;-77
2021/06/13 11:58:13;;;;;;;278.70;262.05;;;24.10;84.20;;;;;;5104335;28;20656;-77
2021/06/13 12:00:54;;;;;;;302.27;283.65;;;24.00;85.60;;;;;;5105390;28;20259;-77
2021/06/13 12:03:47;;;;;;;294.40;276.75;;;24.00;85.40;;;;;;5101964;28;20236;-77
2021/06/13 12:09:44;;;;;;;287.30;269.63;;;23.90;84.50;;;;;;5022458;28;20221;-76
2021/06/13 12:12:14;;;;;;;279.63;263.63;;;24.00;83.70;;;;;;5021129;28;20212;-77
2021/06/13 12:14:42;;;;;;;278.80;262.27;;;24.10;83.30;;;;;;5014396;28;20213;-77
2021/06/13 12:20:45;;;;;;;234.43;220.43;;;23.90;85.60;;;;;;5055828;28;20199;-77
2021/06/13 12:32:42;;;;;;;218.48;205.55;;;24.10;85.60;;;;;;5056043;28;20196;-76
2021/06/13 12:38:35;;;;;;;260.45;244.82;;;23.90;85.90;;;;;;5062524;28;20191;-77
2021/06/13 12:47:59;;;;;;;280.65;263.95;;;23.90;85.10;;;;;;5090355;28;20291;-76
2021/06/13 12:53:58;;;;;;;277.05;260.63;;;24.00;84.80;;;;;;5096246;28;20468;-77
2021/06/13 12:59:24;;;;;;;193.82;182.40;;;23.90;84.30;;;;;;5054785;28;20325;-76
2021/06/13 13:41:47;;;;;;;207.88;196.88;;;24.00;83.50;;;;;;5135546;27;20245;-76
2021/06/13 13:44:20;;;;;;;178.93;169.50;;;23.80;83.20;;;;;;5128492;28;20555;-76
2021/06/13 13:47:28;;;;;;;168.35;158.52;;;23.80;82.30;;;;;;5128046;27;20212;-76
2021/06/13 13:56:52;;;;;;;224.45;211.77;;;23.70;82.30;;;;;;5141466;28;20254;-77
2021/06/13 14:06:59;;;;;;;198.98;187.35;;;23.50;82.70;;;;;;5130569;28;20202;-77
2021/06/13 14:09:35;;;;;;;254.40;240.20;;;23.40;82.90;;;;;;5128626;28;20200;-78
2021/06/13 14:18:47;;;;;;;237.18;223.57;;;23.70;83.80;;;;;;5100298;28;20199;-78
2021/06/13 14:27:25;;;;;;;262.50;246.88;;;23.70;84.80;;;;;;5046635;28;20284;-77
2021/06/13 14:33:57;;;;;;;234.80;220.77;;;23.80;82.20;;;;;;5033876;28;20272;-79
2021/06/13 14:37:07;;;;;;;246.65;232.40;;;23.90;83.50;;;;;;5033310;28;20204;-77
2021/06/13 14:40:17;;;;;;;;;;;;;;;;;;;;;
2021/06/13 14:43:17;;;;;;;238.82;225.27;;;24.00;83.50;;;;;;4964031;29;20275;-77
2021/06/13 14:55:54;;;;;;;239.80;226.25;;;24.20;85.40;;;;;;4967467;29;20716;-76
2021/06/13 14:58:23;;;;;;;240.63;226.75;;;24.00;83.30;;;;;;4976229;28;20291;-76
2021/06/13 15:00:51;;;;;;;234.40;221.20;;;24.00;84.60;;;;;;5049496;28;20209;-77
2021/06/13 15:03:19;;;;;;;211.95;200.13;;;23.90;83.40;;;;;;5138654;27;20205;-77
2021/06/13 15:05:46;;;;;;;231.73;219.02;;;23.90;84.00;;;;;;5129982;27;20203;-77
2021/06/13 15:08:14;;;;;;;237.18;223.50;;;23.80;84.40;;;;;;5131123;27;20228;-77
2021/06/13 15:10:41;;;;;;;245.95;230.73;;;23.90;83.80;;;;;;5138086;27;20207;-77
2021/06/13 15:13:08;;;;;;;237.23;223.63;;;24.00;83.00;;;;;;5130504;27;20628;-77
2021/06/13 15:15:38;;;;;;;214.82;202.95;;;24.00;83.70;;;;;;5129763;27;20212;-77
2021/06/13 15:18:07;;;;;;;214.35;202.88;;;24.00;82.90;;;;;;5133948;27;20227;-77
2021/06/13 15:20:36;;;;;;;236.45;223.05;;;24.00;84.20;;;;;;5128633;28;20257;-77
2021/06/13 15:23:04;;;;;;;208.57;197.18;;;24.00;84.40;;;;;;5137454;27;20196;-77
2021/06/13 15:25:31;;;;;;;229.23;216.38;;;24.10;84.30;;;;;;5136174;27;20231;-76
2021/06/13 15:27:58;;;;;;;208.88;197.63;;;24.10;83.80;;;;;;5133002;27;20196;-77
2021/06/13 15:30:25;;;;;;;218.98;206.75;;;23.90;84.10;;;;;;5130276;27;20643;-77
2021/06/13 15:32:55;;;;;;;210.93;199.30;;;23.90;83.70;;;;;;5136129;27;20207;-76
2021/06/13 15:35:23;;;;;;;230.35;217.60;;;24.00;85.70;;;;;;5129305;27;20583;-77
2021/06/13 15:37:51;;;;;;;206.65;195.23;;;24.00;85.00;;;;;;5131205;27;20234;-77
2021/06/13 15:40:18;;;;;;;212.65;201.07;;;24.10;85.90;;;;;;5136789;27;20206;-77
2021/06/13 15:42:47;;;;;;;228.02;215.57;;;24.20;85.40;;;;;;5133047;27;20226;-77
2021/06/13 15:45:15;;;;;;;197.02;186.25;;;24.30;85.90;;;;;;5131835;27;20251;-77
2021/06/13 15:47:43;;;;;;;199.10;188.52;;;24.30;87.90;;;;;;5130969;27;21021;-77
2021/06/13 15:50:18;;;;;;;206.98;195.75;;;24.20;87.90;;;;;;5133205;27;20201;-76
2021/06/13 15:52:45;;;;;;;221.60;209.10;;;24.10;86.60;;;;;;5137305;27;20262;-77
2021/06/13 15:55:13;;;;;;;212.45;200.85;;;24.00;88.60;;;;;;5135850;27;20209;-78
2021/06/13 15:57:41;;;;;;;221.80;209.60;;;24.00;88.70;;;;;;5135106;27;20293;-76
2021/06/13 16:00:09;;;;;;;202.23;191.43;;;24.00;87.70;;;;;;5134764;27;20199;-75
2021/06/13 16:05:19;;;;;;;216.07;204.27;;;24.20;85.90;;;;;;5131876;27;20287;-76
2021/06/13 16:07:46;;;;;;;242.75;229.02;;;24.30;85.30;;;;;;5127994;27;20237;-75
2021/06/13 16:10:14;;;;;;;234.77;222.13;;;24.30;88.20;;;;;;5129703;27;20203;-77
2021/06/13 16:12:41;;;;;;;230.90;218.18;;;24.20;87.80;;;;;;5126754;27;20209;-75
2021/06/13 16:15:14;;;;;;;195.90;185.30;;;24.20;86.80;;;;;;5131401;27;20199;-75
2021/06/13 16:17:43;;;;;;;230.35;217.75;;;24.10;87.10;;;;;;5134776;27;20216;-75
2021/06/13 16:20:11;;;;;;;208.63;196.90;;;24.00;87.80;;;;;;5126639;28;20196;-76
2021/06/13 16:22:39;;;;;;;218.80;207.02;;;23.80;86.70;;;;;;5127433;27;20247;-77
2021/06/13 16:25:08;;;;;;;230.77;217.82;;;23.70;87.00;;;;;;5128125;27;20216;-76
2021/06/13 16:27:35;;;;;;;211.02;199.07;;;23.80;87.90;;;;;;5127677;27;20656;-76
2021/06/13 16:30:02;;;;;;;237.07;223.52;;;23.80;86.70;;;;;;5127901;27;20199;-76
2021/06/13 16:32:28;;;;;;;207.98;196.45;;;23.90;86.70;;;;;;5128057;27;20204;-76
2021/06/13 16:34:56;;;;;;;207.07;195.95;;;24.00;87.30;;;;;;5132313;27;20203;-76
2021/06/13 16:37:24;;;;;;;238.00;224.77;;;24.00;86.50;;;;;;5137461;27;20252;-76
2021/06/13 16:39:52;;;;;;;216.82;204.95;;;23.80;86.60;;;;;;5126752;28;20218;-77
2021/06/13 16:42:19;;;;;;;232.18;218.63;;;23.70;87.00;;;;;;5127006;27;20200;-77
2021/06/13 16:44:46;;;;;;;237.35;224.25;;;23.60;87.10;;;;;;5130454;27;20253;-77
2021/06/13 16:47:13;;;;;;;224.65;212.25;;;23.60;87.30;;;;;;5131522;27;20226;-77
2021/06/13 16:49:40;;;;;;;236.57;223.55;;;23.60;86.30;;;;;;5127504;27;20265;-77
2021/06/13 16:52:07;;;;;;;236.35;223.25;;;23.70;87.10;;;;;;5127599;28;20211;-76
2021/06/13 16:54:34;;;;;;;217.38;205.38;;;23.80;89.80;;;;;;5127605;27;20197;-77
2021/06/13 16:57:04;;;;;;;217.98;206.07;;;24.00;89.60;;;;;;5135919;27;20202;-76
2021/06/13 16:59:31;;;;;;;221.75;209.65;;;24.10;88.20;;;;;;5127432;27;20296;-77
2021/06/13 17:01:58;;;;;;;189.48;179.38;;;24.20;89.40;;;;;;5127139;27;20220;-77
2021/06/13 17:04:25;;;;;;;199.30;188.60;;;24.20;89.40;;;;;;5131541;27;20223;-76
2021/06/13 17:06:52;;;;;;;199.02;188.20;;;24.30;88.50;;;;;;5126849;27;20655;-76
2021/06/13 17:09:19;;;;;;;223.85;211.05;;;24.30;87.50;;;;;;5131134;27;20236;-77
2021/06/13 17:11:46;;;;;;;209.30;197.90;;;24.20;87.00;;;;;;5136390;27;20268;-76
2021/06/13 17:14:15;;;;;;;191.10;181.00;;;24.30;88.30;;;;;;5126420;27;20234;-77
2021/06/13 17:16:43;;;;;;;199.10;188.00;;;24.10;87.80;;;;;;5130102;27;20338;-76
2021/06/13 17:19:12;;;;;;;189.20;179.07;;;24.10;87.70;;;;;;5135231;27;20231;-77
2021/06/13 17:21:41;;;;;;;192.20;181.60;;;24.00;88.30;;;;;;5127384;27;20199;-76
2021/06/13 17:24:10;;;;;;;196.55;185.77;;;24.00;87.70;;;;;;5133103;27;20208;-77
2021/06/13 17:26:37;;;;;;;209.85;197.80;;;24.00;88.00;;;;;;5125870;27;20196;-76
2021/06/13 17:29:13;;;;;;;186.80;176.60;;;24.10;87.90;;;;;;5132502;27;20286;-77
2021/06/13 17:31:44;;;;;;;216.85;204.85;;;24.20;87.50;;;;;;5127921;27;20207;-77
2021/06/13 17:34:11;;;;;;;197.02;186.23;;;24.30;87.10;;;;;;5126178;27;20210;-77
2021/06/13 17:36:55;;;;;;;223.95;210.80;;;24.40;87.50;;;;;;5135531;27;20255;-76
2021/06/13 17:39:22;;;;;;;211.77;199.23;;;24.30;88.00;;;;;;5126583;27;20222;-76
2021/06/13 17:41:52;;;;;;;205.68;194.68;;;24.10;88.00;;;;;;5135199;27;20207;-76
2021/06/13 17:44:20;;;;;;;188.50;178.32;;;24.00;87.20;;;;;;5125926;28;20228;-77
2021/06/13 17:46:50;;;;;;;207.85;196.13;;;24.00;87.20;;;;;;5128054;27;20260;-77
2021/06/13 17:49:17;;;;;;;204.57;192.80;;;23.90;86.80;;;;;;5128834;27;20197;-77
2021/06/13 17:51:44;;;;;;;202.13;190.75;;;23.80;87.10;;;;;;5128177;27;22284;-77
2021/06/13 17:54:13;;;;;;;205.13;193.48;;;23.90;88.80;;;;;;5128333;27;20203;-76
2021/06/13 17:56:40;;;;;;;186.10;176.23;;;24.00;88.50;;;;;;5130780;27;20229;-77
2021/06/13 17:59:07;;;;;;;200.27;189.23;;;23.90;88.60;;;;;;5131118;27;20199;-76
2021/06/13 18:01:34;;;;;;;215.32;203.55;;;23.80;87.70;;;;;;5125382;28;20200;-76
2021/06/13 18:04:03;;;;;;;204.45;192.35;;;23.70;87.00;;;;;;5128621;28;20222;-76
2021/06/13 18:06:30;;;;;;;235.43;222.63;;;23.70;88.10;;;;;;5129929;27;20232;-77
2021/06/13 18:08:57;;;;;;;230.25;216.77;;;23.70;88.60;;;;;;5129201;28;20231;-76
2021/06/13 18:11:25;;;;;;;221.35;209.18;;;23.70;88.70;;;;;;5138230;27;20192;-76
2021/06/13 18:13:52;;;;;;;221.80;209.27;;;23.70;89.30;;;;;;5136943;28;20245;-76
2021/06/13 18:16:19;;;;;;;218.32;205.95;;;23.80;89.60;;;;;;5135718;28;20200;-75
2021/06/13 18:18:46;;;;;;;201.80;191.00;;;23.80;88.70;;;;;;5125780;28;20203;-76
2021/06/13 18:21:14;;;;;;;202.70;191.80;;;23.80;87.90;;;;;;5126342;28;20259;-77
2021/06/13 18:23:42;;;;;;;199.00;187.57;;;23.80;88.20;;;;;;5126314;28;20226;-77
2021/06/13 18:26:09;;;;;;;198.38;187.43;;;23.80;88.90;;;;;;5129653;27;20684;-76
2021/06/13 18:28:36;;;;;;;203.20;192.15;;;23.70;88.40;;;;;;5136472;27;20205;-76
2021/06/13 18:31:04;;;;;;;205.48;194.30;;;23.80;89.40;;;;;;5129580;27;20228;-76
2021/06/13 18:33:31;;;;;;;192.40;181.70;;;23.80;89.60;;;;;;5130274;27;20236;-76
2021/06/13 18:35:59;;;;;;;201.50;190.05;;;23.80;90.00;;;;;;5135441;27;20203;-76
2021/06/13 18:38:27;;;;;;;221.15;208.65;;;23.90;90.00;;;;;;5136230;27;20234;-75
2021/06/13 18:40:55;;;;;;;209.05;197.75;;;24.00;90.90;;;;;;5129727;27;20226;-76
2021/06/13 18:43:22;;;;;;;224.68;212.18;;;24.00;90.90;;;;;;5129313;27;20203;-76
2021/06/13 18:45:49;;;;;;;199.25;188.52;;;24.00;90.60;;;;;;5130091;27;20225;-76
2021/06/13 18:48:17;;;;;;;199.93;188.27;;;24.00;90.40;;;;;;5134500;27;20209;-76
2021/06/13 18:50:44;;;;;;;214.02;201.73;;;24.00;89.80;;;;;;5129057;27;20237;-76
2021/06/13 18:53:13;;;;;;;218.48;206.15;;;24.00;90.40;;;;;;5129173;27;20264;-76
2021/06/13 18:55:43;;;;;;;200.15;189.02;;;23.90;92.20;;;;;;5129096;27;20208;-77
2021/06/13 18:58:10;;;;;;;200.23;189.43;;;23.90;93.00;;;;;;5133342;27;20297;-75
2021/06/13 19:00:38;;;;;;;204.05;192.73;;;23.80;93.70;;;;;;5130115;27;20208;-75
2021/06/13 19:03:06;;;;;;;229.13;215.90;;;23.80;93.70;;;;;;5128825;27;20210;-75
2021/06/13 19:05:33;;;;;;;215.40;203.50;;;23.80;94.20;;;;;;5129606;27;20213;-75
2021/06/13 19:08:00;;;;;;;201.38;190.40;;;23.70;94.80;;;;;;5138247;27;20288;-75
2021/06/13 19:10:28;;;;;;;213.90;202.40;;;23.80;94.80;;;;;;5128914;27;20203;-76
2021/06/13 19:12:58;;;;;;;203.95;193.13;;;23.70;94.90;;;;;;5129345;28;20254;-75
2021/06/13 19:15:25;;;;;;;239.25;225.70;;;23.60;95.40;;;;;;5136378;27;20213;-75
2021/06/13 19:17:52;;;;;;;243.00;229.52;;;23.50;95.60;;;;;;5130570;27;20200;-76
2021/06/13 19:20:19;;;;;;;236.10;223.07;;;23.40;96.00;;;;;;5129858;27;20192;-76
2021/06/13 19:22:46;;;;;;;224.93;212.23;;;23.40;96.30;;;;;;5139183;27;20224;-77
2021/06/13 19:25:15;;;;;;;251.45;237.32;;;23.30;95.80;;;;;;5128519;27;20226;-75
2021/06/13 19:27:45;;;;;;;242.20;228.60;;;23.20;96.30;;;;;;5132234;27;20270;-75
2021/06/13 19:30:16;;;;;;;235.60;222.65;;;23.10;96.80;;;;;;5128884;27;20222;-76
2021/06/13 19:32:43;;;;;;;205.23;194.10;;;23.00;97.30;;;;;;5128764;27;20211;-76
2021/06/13 19:35:11;;;;;;;212.18;200.57;;;23.00;98.10;;;;;;5138425;27;20199;-76
2021/06/13 19:37:38;;;;;;;218.98;206.65;;;22.90;98.20;;;;;;5128485;27;20198;-75
2021/06/13 19:40:08;;;;;;;192.90;182.90;;;22.80;98.50;;;;;;5128428;27;20203;-76
2021/06/13 19:42:38;;;;;;;229.07;215.98;;;22.70;98.70;;;;;;5129073;27;20286;-76
2021/06/13 19:45:07;;;;;;;199.90;189.32;;;22.60;99.20;;;;;;5128638;27;20221;-75
2021/06/13 19:47:35;;;;;;;220.63;208.73;;;22.50;99.10;;;;;;5132933;27;20191;-76
2021/06/13 19:50:03;;;;;;;198.45;187.88;;;22.40;99.50;;;;;;5127954;28;20225;-76
2021/06/13 19:52:32;;;;;;;194.27;183.65;;;22.30;99.80;;;;;;5133284;27;20622;-75
2021/06/13 19:55:01;;;;;;;194.15;183.55;;;22.20;99.90;;;;;;5132498;27;20193;-77
2021/06/13 19:57:30;;;;;;;180.07;170.35;;;22.20;99.90;;;;;;5137874;27;20202;-77
2021/06/13 19:59:57;;;;;;;184.25;174.43;;;22.20;99.90;;;;;;5131035;27;20198;-75
2021/06/13 20:02:24;;;;;;;229.60;216.95;;;22.00;99.90;;;;;;5127667;27;20222;-74
2021/06/13 20:04:53;;;;;;;193.15;182.68;;;21.90;99.90;;;;;;5137081;27;20201;-77